createdAt,value
2019-04-10T00:00:59.289Z,68.03
2019-04-10T00:03:37.032Z,68.25
2019-04-10T00:06:08.783Z,68.36
2019-04-10T00:08:40.393Z,68.46
2019-04-10T00:11:12.349Z,68.54
2019-04-10T00:13:44.924Z,68.72
2019-04-10T00:16:18.454Z,68.89
2019-04-10T00:18:50.516Z,69.20
2019-04-10T00:21:22.969Z,69.16
2019-04-10T00:23:55.535Z,69.38
2019-04-10T00:26:27.856Z,69.50
2019-04-10T00:29:00.247Z,69.74
2019-04-10T00:31:33.857Z,69.73
2019-04-10T00:34:06.005Z,70.14
2019-04-10T00:36:38.002Z,69.87
2019-04-10T00:39:12.563Z,69.95
2019-04-10T00:41:44.394Z,69.78
2019-04-10T00:44:16.433Z,70.16
2019-04-10T00:46:48.711Z,70.24
2019-04-10T00:49:21.819Z,70.09
2019-04-10T00:51:53.390Z,70.11
2019-04-10T00:54:26.106Z,70.13
2019-04-10T00:56:58.892Z,70.18
2019-04-10T00:59:30.866Z,70.18
2019-04-10T01:02:02.608Z,70.14
2019-04-10T01:04:34.322Z,70.20
2019-04-10T01:07:07.047Z,70.02
2019-04-10T01:09:39.648Z,70.00
2019-04-10T01:12:11.872Z,70.17
2019-04-10T01:14:43.646Z,70.13
2019-04-10T01:17:15.856Z,69.99
2019-04-10T01:19:48.216Z,70.45
2019-04-10T01:22:21.234Z,70.46
2019-04-10T01:24:54.412Z,70.37
2019-04-10T01:27:27.765Z,70.55
2019-04-10T01:30:00.117Z,70.86
2019-04-10T01:32:32.755Z,70.86
2019-04-10T01:35:05.789Z,70.95
2019-04-10T01:37:48.420Z,70.99
2019-04-10T01:40:11.521Z,71.04
2019-04-10T01:42:58.959Z,71.13
2019-04-10T01:45:17.914Z,71.27
2019-04-10T01:47:49.732Z,71.10
2019-04-10T01:50:22.161Z,71.39
2019-04-10T01:52:55.447Z,72.07
2019-04-10T01:55:30.300Z,72.28
2019-04-10T01:58:03.031Z,72.06
2019-04-10T02:00:35.623Z,72.06
2019-04-10T02:03:07.245Z,72.16
2019-04-10T02:05:39.542Z,72.01
2019-04-10T02:08:14.344Z,72.23
2019-04-10T02:10:45.298Z,72.29
2019-04-10T02:13:17.179Z,72.60
2019-04-10T02:15:50.271Z,72.81
2019-04-10T02:18:22.064Z,72.57
2019-04-10T02:20:55.665Z,72.69
2019-04-10T02:23:28.144Z,72.65
2019-04-10T02:25:59.741Z,72.66
2019-04-10T02:28:33.284Z,72.62
2019-04-10T02:31:07.222Z,72.79
2019-04-10T02:33:38.917Z,72.68
2019-04-10T02:36:10.940Z,72.84
2019-04-10T02:38:57.328Z,73.03
2019-04-10T02:41:17.408Z,73.26
2019-04-10T02:43:49.218Z,73.71
2019-04-10T02:46:21.981Z,73.85
2019-04-10T02:48:58.015Z,74.16
2019-04-10T02:51:32.488Z,73.84
2019-04-10T02:54:05.198Z,74.16
2019-04-10T02:56:39.116Z,74.01
2019-04-10T02:59:11.334Z,74.11
2019-04-10T03:01:44.239Z,73.84
2019-04-10T03:04:16.509Z,73.67
2019-04-10T03:06:48.803Z,73.79
2019-04-10T03:09:40.478Z,73.71
2019-04-10T03:11:55.436Z,73.76
2019-04-10T03:14:28.465Z,73.70
2019-04-10T03:17:00.220Z,73.86
2019-04-10T03:19:31.810Z,73.86
2019-04-10T03:22:04.101Z,73.82
2019-04-10T03:24:35.952Z,73.66
2019-04-10T03:27:07.543Z,73.80
2019-04-10T03:29:39.987Z,73.85
2019-04-10T03:32:36.344Z,73.93
2019-04-10T03:35:11.090Z,73.93
2019-04-10T03:37:42.799Z,73.70
2019-04-10T03:40:15.366Z,73.47
2019-04-10T03:42:47.443Z,73.45
2019-04-10T03:45:20.217Z,73.59
2019-04-10T03:47:52.886Z,73.54
2019-04-10T03:50:25.826Z,73.59
2019-04-10T03:52:57.975Z,73.67
2019-04-10T03:55:29.933Z,73.51
2019-04-10T03:58:03.427Z,73.46
2019-04-10T04:00:35.040Z,73.48
2019-04-10T04:03:08.529Z,73.53
2019-04-10T04:05:40.194Z,73.42
2019-04-10T04:08:13.032Z,73.43
2019-04-10T04:10:44.776Z,73.48
2019-04-10T04:13:17.479Z,73.48
2019-04-10T04:15:50.485Z,73.41
2019-04-10T04:18:22.811Z,73.11
2019-04-10T04:20:55.066Z,73.16
2019-04-10T04:23:27.772Z,73.01
2019-04-10T04:26:00.912Z,72.83
2019-04-10T04:28:34.463Z,72.84
2019-04-10T04:31:06.120Z,72.63
2019-04-10T04:33:38.848Z,72.45
2019-04-10T04:36:10.556Z,72.46
2019-04-10T04:38:43.204Z,72.41
2019-04-10T04:41:15.428Z,72.33
2019-04-10T04:43:48.716Z,72.51
2019-04-10T04:46:21.193Z,72.32
2019-04-10T04:48:53.019Z,72.32
2019-04-10T04:51:26.067Z,72.12
2019-04-10T04:53:59.146Z,71.90
2019-04-10T04:56:31.732Z,71.81
2019-04-10T04:59:03.643Z,71.81
2019-04-10T05:01:35.995Z,71.37
2019-04-10T05:04:09.054Z,70.98
2019-04-10T05:06:41.738Z,70.71
2019-04-10T05:09:25.958Z,70.46
2019-04-10T05:11:46.949Z,70.35
2019-04-10T05:14:19.589Z,70.08
2019-04-10T05:16:52.644Z,69.78
2019-04-10T05:19:25.505Z,69.54
2019-04-10T05:21:57.534Z,69.27
2019-04-10T05:24:30.040Z,68.88
2019-04-10T05:27:02.354Z,68.84
2019-04-10T05:29:34.585Z,68.44
2019-04-10T05:32:07.218Z,68.23
2019-04-10T05:34:40.399Z,67.95
2019-04-10T05:37:12.124Z,67.84
2019-04-10T05:39:49.159Z,67.74
2019-04-10T05:42:18.319Z,67.60
2019-04-10T05:44:50.269Z,67.38
2019-04-10T05:47:22.043Z,67.26
2019-04-10T05:49:53.793Z,67.07
2019-04-10T05:52:26.679Z,66.36
2019-04-10T05:54:58.588Z,67.04
2019-04-10T05:57:30.802Z,67.08
2019-04-10T06:00:05.126Z,66.61
2019-04-10T06:02:37.036Z,66.53
2019-04-10T06:05:09.745Z,66.06
2019-04-10T06:07:41.649Z,66.03
2019-04-10T06:10:13.402Z,66.07
2019-04-10T06:12:46.698Z,66.37
2019-04-10T06:15:19.106Z,65.97
2019-04-10T06:17:51.103Z,65.56
2019-04-10T06:20:23.259Z,65.86
2019-04-10T06:22:55.847Z,65.12
2019-04-10T06:25:28.774Z,64.52
2019-04-10T06:28:01.143Z,64.58
2019-04-10T06:30:33.996Z,64.43
2019-04-10T06:33:06.024Z,64.06
2019-04-10T06:35:37.895Z,64.29
2019-04-10T06:38:10.609Z,63.42
2019-04-10T06:40:43.955Z,63.05
2019-04-10T06:43:15.632Z,62.37
2019-04-10T06:45:48.228Z,62.32
2019-04-10T06:48:20.008Z,62.33
2019-04-10T06:50:51.903Z,61.23
2019-04-10T06:53:24.711Z,61.30
2019-04-10T06:55:57.313Z,60.31
2019-04-10T06:58:30.618Z,60.47
2019-04-10T07:01:04.136Z,59.63
2019-04-10T07:03:49.469Z,59.16
2019-04-10T07:06:16.966Z,58.95
2019-04-10T07:08:48.857Z,59.27
2019-04-10T07:11:19.071Z,59.14
2019-04-10T07:13:51.242Z,58.99
2019-04-10T07:16:26.630Z,58.56
2019-04-10T07:18:59.887Z,57.33
2019-04-10T07:21:35.529Z,57.66
2019-04-10T07:24:08.304Z,57.26
2019-04-10T07:26:43.705Z,57.37
2019-04-10T07:29:19.746Z,57.53
2019-04-10T07:31:48.566Z,56.84
2019-04-10T07:34:22.058Z,56.73
2019-04-10T07:36:54.033Z,55.82
2019-04-10T07:39:29.229Z,56.29
2019-04-10T07:41:59.992Z,56.34
2019-04-10T07:44:32.615Z,55.67
2019-04-10T07:47:04.759Z,55.64
2019-04-10T07:49:39.428Z,55.89
2019-04-10T07:52:10.561Z,56.63
2019-04-10T07:54:44.610Z,55.30
2019-04-10T07:57:16.119Z,55.06
2019-04-10T07:59:47.732Z,55.06
2019-04-10T08:02:21.163Z,55.17
2019-04-10T08:04:53.906Z,55.40
2019-04-10T08:07:30.368Z,54.64
2019-04-10T08:10:00.062Z,55.40
2019-04-10T08:12:39.496Z,54.94
2019-04-10T08:15:06.944Z,53.82
2019-04-10T08:17:39.067Z,53.79
2019-04-10T08:20:11.712Z,53.62
2019-04-10T08:22:44.807Z,53.41
2019-04-10T08:25:16.723Z,54.11
2019-04-10T08:27:50.066Z,53.37
2019-04-10T08:30:22.025Z,52.99
2019-04-10T08:33:00.753Z,52.70
2019-04-10T08:35:27.406Z,52.54
2019-04-10T08:37:59.291Z,52.99
2019-04-10T08:40:32.089Z,53.06
2019-04-10T08:43:04.165Z,52.94
2019-04-10T08:45:44.945Z,52.42
2019-04-10T08:48:10.080Z,52.60
2019-04-10T08:50:42.009Z,51.92
2019-04-10T08:53:13.916Z,52.53
2019-04-10T08:55:46.237Z,51.72
2019-04-10T08:58:18.807Z,50.89
2019-04-10T09:00:52.729Z,50.77
2019-04-10T09:03:25.021Z,50.72
2019-04-10T09:05:56.815Z,51.55
2019-04-10T09:08:28.828Z,51.29
2019-04-10T09:11:00.988Z,51.36
2019-04-10T09:13:32.836Z,50.85
2019-04-10T09:16:04.630Z,50.29
2019-04-10T09:18:37.215Z,49.31
2019-04-10T09:21:09.061Z,49.25
2019-04-10T09:23:47.291Z,48.47
2019-04-10T09:26:15.537Z,49.06
2019-04-10T09:28:49.481Z,49.16
2019-04-10T09:31:21.800Z,49.28
2019-04-10T09:33:53.753Z,49.45
2019-04-10T09:36:26.965Z,49.24
2019-04-10T09:38:59.081Z,49.47
2019-04-10T09:41:32.027Z,49.73
2019-04-10T09:44:04.528Z,50.22
2019-04-10T09:46:37.445Z,49.79
2019-04-10T09:49:09.539Z,49.24
2019-04-10T09:51:42.457Z,48.60
2019-04-10T09:54:14.124Z,48.95
2019-04-10T09:56:46.353Z,47.88
2019-04-10T09:59:18.094Z,47.76
2019-04-10T10:01:51.415Z,47.70
2019-04-10T10:04:23.658Z,48.13
2019-04-10T10:06:55.809Z,47.68
2019-04-10T10:09:29.256Z,47.30
2019-04-10T10:12:01.740Z,47.68
2019-04-10T10:14:33.438Z,47.31
2019-04-10T10:17:06.537Z,46.82
2019-04-10T10:19:40.620Z,48.66
2019-04-10T10:22:14.697Z,47.67
2019-04-10T10:24:46.872Z,47.45
2019-04-10T10:27:19.986Z,47.93
2019-04-10T10:29:53.556Z,48.45
2019-04-10T10:32:25.299Z,47.90
2019-04-10T10:34:58.989Z,48.23
2019-04-10T10:37:30.574Z,48.64
2019-04-10T10:40:03.455Z,48.64
2019-04-10T10:42:38.503Z,49.14
2019-04-10T10:45:12.504Z,48.62
2019-04-10T10:47:44.329Z,48.89
2019-04-10T10:50:17.181Z,49.37
2019-04-10T10:52:50.078Z,49.22
2019-04-10T10:55:23.281Z,48.95
2019-04-10T10:57:56.174Z,48.92
2019-04-10T11:00:29.321Z,47.63
2019-04-10T11:03:02.249Z,47.45
2019-04-10T11:05:37.188Z,46.76
2019-04-10T11:08:08.984Z,45.98
2019-04-10T11:10:41.314Z,45.01
2019-04-10T11:13:13.349Z,44.43
2019-04-10T11:15:45.960Z,44.33
2019-04-10T11:18:19.480Z,43.52
2019-04-10T11:20:52.287Z,43.18
2019-04-10T11:23:24.558Z,43.31
2019-04-10T11:25:57.699Z,43.85
2019-04-10T11:31:03.264Z,43.19
2019-04-10T11:33:37.291Z,43.16
2019-04-10T11:36:09.830Z,44.01
2019-04-10T11:38:42.894Z,43.29
2019-04-10T11:41:18.915Z,43.27
2019-04-10T11:43:52.602Z,43.48
2019-04-10T11:46:28.290Z,42.71
2019-04-10T11:48:57.806Z,42.56
2019-04-10T11:54:05.371Z,42.51
2019-04-10T11:56:38.375Z,42.16
2019-04-10T11:59:12.356Z,42.10
2019-04-10T12:01:46.206Z,42.10
2019-04-10T12:04:19.554Z,42.28
2019-04-10T12:06:54.054Z,41.91
2019-04-10T12:10:16.821Z,41.46
2019-04-10T12:11:57.391Z,41.57
2019-04-10T12:14:29.986Z,41.57
2019-04-10T12:17:01.915Z,41.45
2019-04-10T12:19:33.589Z,41.81
2019-04-10T12:22:05.917Z,40.80
2019-04-10T12:24:38.528Z,41.63
2019-04-10T12:27:10.567Z,41.41
2019-04-10T12:29:43.887Z,41.59
2019-04-10T12:32:16.659Z,42.03
2019-04-10T12:34:49.018Z,41.88
2019-04-10T12:37:21.011Z,42.47
2019-04-10T12:39:53.028Z,42.66
2019-04-10T12:42:24.559Z,42.75
2019-04-10T12:44:56.386Z,42.90
2019-04-10T12:47:28.525Z,43.72
2019-04-10T12:50:00.327Z,43.54
2019-04-10T12:52:34.571Z,43.30
2019-04-10T12:55:06.677Z,43.51
2019-04-10T12:57:39.157Z,43.78
2019-04-10T13:00:15.968Z,44.11
2019-04-10T13:02:47.778Z,44.83
2019-04-10T13:05:20.911Z,44.35
2019-04-10T13:07:53.976Z,45.05
2019-04-10T13:10:25.915Z,44.86
2019-04-10T13:12:57.762Z,44.83
2019-04-10T13:15:31.888Z,44.69
2019-04-10T13:18:03.936Z,44.69
2019-04-10T13:20:35.746Z,44.67
2019-04-10T13:23:07.237Z,44.29
2019-04-10T13:25:39.161Z,44.49
2019-04-10T13:28:11.570Z,44.57
2019-04-10T13:30:48.879Z,45.00
2019-04-10T13:33:17.313Z,45.79
2019-04-10T13:35:49.496Z,45.79
2019-04-10T13:38:27.628Z,45.62
2019-04-10T13:40:54.840Z,45.46
2019-04-10T13:43:27.660Z,45.58
2019-04-10T13:46:00.832Z,45.39
2019-04-10T13:48:33.445Z,45.76
2019-04-10T13:51:05.886Z,45.99
2019-04-10T13:53:38.306Z,45.84
2019-04-10T13:56:09.826Z,46.52
2019-04-10T13:58:42.617Z,46.16
2019-04-10T14:01:19.657Z,46.55
2019-04-10T14:03:52.437Z,46.57
2019-04-10T14:06:25.448Z,47.09
2019-04-10T14:09:12.235Z,46.08
2019-04-10T14:11:30.613Z,46.23
2019-04-10T14:14:02.523Z,46.31
2019-04-10T14:16:35.043Z,46.16
2019-04-10T14:19:07.738Z,46.44
2019-04-10T14:21:40.854Z,46.45
2019-04-10T14:24:13.247Z,46.44
2019-04-10T14:27:09.101Z,45.68
2019-04-10T14:29:40.973Z,46.53
2019-04-10T14:32:18.449Z,45.77
2019-04-10T14:34:50.544Z,45.82
2019-04-10T14:37:23.267Z,46.70
2019-04-10T14:39:55.781Z,46.26
2019-04-10T14:42:28.533Z,46.59
2019-04-10T14:45:01.394Z,46.66
2019-04-10T14:47:34.359Z,47.10
2019-04-10T14:50:07.526Z,46.68
2019-04-10T14:52:39.278Z,47.04
2019-04-10T14:55:12.455Z,47.37
2019-04-10T14:57:45.490Z,47.31
2019-04-10T15:00:31.163Z,47.29
2019-04-10T15:03:04.358Z,47.05
2019-04-10T15:05:46.487Z,46.97
2019-04-10T15:08:09.935Z,47.29
2019-04-10T15:10:43.948Z,47.37
2019-04-10T15:13:19.740Z,47.69
2019-04-10T15:15:50.391Z,47.69
2019-04-10T15:18:22.563Z,47.67
2019-04-10T15:20:54.457Z,47.20
2019-04-10T15:23:25.995Z,47.37
2019-04-10T15:25:59.881Z,47.37
2019-04-10T15:28:33.923Z,47.49
2019-04-10T15:31:06.840Z,47.31
2019-04-10T15:33:39.435Z,47.81
2019-04-10T15:36:11.601Z,47.61
2019-04-10T15:38:44.361Z,48.06
2019-04-10T15:41:18.979Z,48.18
2019-04-10T15:43:51.738Z,47.81
2019-04-10T15:46:24.794Z,48.26
2019-04-10T15:48:56.919Z,48.14
2019-04-10T15:51:30.020Z,47.97
2019-04-10T15:54:02.042Z,47.74
2019-04-10T15:56:34.140Z,48.00
2019-04-10T15:59:06.263Z,48.04
2019-04-10T16:01:37.886Z,47.84
2019-04-10T16:04:09.866Z,47.85
2019-04-10T16:06:41.926Z,47.77
2019-04-10T16:09:15.067Z,47.46
2019-04-10T16:12:14.618Z,47.73
2019-04-10T16:14:46.629Z,48.28
2019-04-10T16:17:41.945Z,48.11
2019-04-10T16:20:33.611Z,48.72
2019-04-10T16:23:14.907Z,48.42
2019-04-10T16:25:52.389Z,48.50
2019-04-10T16:28:24.133Z,48.36
2019-04-10T16:30:57.202Z,48.30
2019-04-10T16:33:29.422Z,48.51
2019-04-10T16:36:03.078Z,48.74
2019-04-10T16:38:34.864Z,49.31
2019-04-10T16:41:06.651Z,49.95
2019-04-10T16:43:38.349Z,49.42
2019-04-10T16:46:11.121Z,49.19
2019-04-10T16:48:44.210Z,50.10
2019-04-10T16:51:17.242Z,49.18
2019-04-10T16:53:49.932Z,49.56
2019-04-10T16:56:25.428Z,49.70
2019-04-10T16:58:58.474Z,49.64
2019-04-10T17:01:30.950Z,50.29
2019-04-10T17:04:05.021Z,50.05
2019-04-10T17:06:36.953Z,50.23
2019-04-10T17:09:12.254Z,50.49
2019-04-10T17:11:45.134Z,50.48
2019-04-10T17:14:17.547Z,50.91
2019-04-10T17:16:50.314Z,51.25
2019-04-10T17:19:23.598Z,51.28
2019-04-10T17:21:56.877Z,51.04
2019-04-10T17:24:29.302Z,51.49
2019-04-10T17:27:01.503Z,51.98
2019-04-10T17:29:33.591Z,51.73
2019-04-10T17:32:06.981Z,50.94
2019-04-10T17:34:38.998Z,51.07
2019-04-10T17:37:11.931Z,51.10
2019-04-10T17:39:43.921Z,50.69
2019-04-10T17:42:16.582Z,50.91
2019-04-10T17:44:49.969Z,50.98
2019-04-10T17:47:22.877Z,51.16
2019-04-10T17:49:55.946Z,51.20
2019-04-10T17:52:28.107Z,51.26
2019-04-10T17:55:00.886Z,51.47
2019-04-10T17:57:38.552Z,51.14
2019-04-10T18:00:15.890Z,51.74
2019-04-10T18:02:48.556Z,51.75
2019-04-10T18:05:20.511Z,51.82
2019-04-10T18:07:52.876Z,51.97
2019-04-10T18:10:34.376Z,51.79
2019-04-10T18:13:00.879Z,51.72
2019-04-10T18:15:35.826Z,52.08
2019-04-10T18:18:08.303Z,52.26
2019-04-10T18:20:42.236Z,52.33
2019-04-10T18:23:15.516Z,52.35
2019-04-10T18:25:47.337Z,52.44
2019-04-10T18:28:21.299Z,52.58
2019-04-10T18:30:54.486Z,52.47
2019-04-10T18:33:26.533Z,52.36
2019-04-10T18:35:59.462Z,52.52
2019-04-10T18:38:31.741Z,52.55
2019-04-10T18:41:06.876Z,52.76
2019-04-10T18:43:37.740Z,53.01
2019-04-10T18:46:13.392Z,53.10
2019-04-10T18:48:45.596Z,53.05
2019-04-10T18:51:16.365Z,52.93
2019-04-10T18:53:49.288Z,52.92
2019-04-10T18:56:22.218Z,52.94
2019-04-10T18:59:06.726Z,53.16
2019-04-10T19:01:56.082Z,53.09
2019-04-10T19:04:41.747Z,53.22
2019-04-10T19:07:15.382Z,53.04
2019-04-10T19:09:47.235Z,53.16
2019-04-10T19:12:19.301Z,52.88
2019-04-10T19:14:51.144Z,52.93
2019-04-10T19:17:23.068Z,52.95
2019-04-10T19:19:56.754Z,53.00
2019-04-10T19:22:28.574Z,53.04
2019-04-10T19:25:00.744Z,53.35
2019-04-10T19:27:32.407Z,53.19
2019-04-10T19:30:06.699Z,53.20
2019-04-10T19:32:38.792Z,53.52
2019-04-10T19:35:10.902Z,53.63
2019-04-10T19:37:43.325Z,53.60
2019-04-10T19:40:15.909Z,53.41
2019-04-10T19:42:47.742Z,53.05
2019-04-10T19:45:19.569Z,52.49
2019-04-10T19:47:52.721Z,52.25
2019-04-10T19:50:25.533Z,52.23
2019-04-10T19:52:57.163Z,52.26
2019-04-10T19:55:29.626Z,52.11
2019-04-10T19:58:01.764Z,52.02
2019-04-10T20:00:36.753Z,52.34
2019-04-10T20:03:08.653Z,52.41
2019-04-10T20:05:41.513Z,52.42
2019-04-10T20:08:13.281Z,52.54
2019-04-10T20:10:45.705Z,52.69
2019-04-10T20:13:18.703Z,52.83
2019-04-10T20:15:50.958Z,52.66
2019-04-10T20:18:23.002Z,53.20
2019-04-10T20:20:55.464Z,52.69
2019-04-10T20:23:27.898Z,52.81
2019-04-10T20:26:01.353Z,52.96
2019-04-10T20:28:33.159Z,53.14
2019-04-10T20:31:07.009Z,53.21
2019-04-10T20:33:38.911Z,53.47
2019-04-10T20:36:11.058Z,53.74
2019-04-10T20:38:43.072Z,53.85
2019-04-10T20:41:16.315Z,53.71
2019-04-10T20:43:49.584Z,53.76
2019-04-10T20:46:22.250Z,53.58
2019-04-10T20:48:55.075Z,53.73
2019-04-10T20:51:26.864Z,53.90
2019-04-10T20:53:58.625Z,53.72
2019-04-10T20:56:30.697Z,53.90
2019-04-10T20:59:03.506Z,54.27
2019-04-10T21:01:35.186Z,53.75
2019-04-10T21:04:07.849Z,53.78
2019-04-10T21:06:41.934Z,53.73
2019-04-10T21:09:13.459Z,53.84
2019-04-10T21:11:58.059Z,53.51
2019-04-10T21:14:21.103Z,54.12
2019-04-10T21:16:53.002Z,53.58
2019-04-10T21:19:24.925Z,53.24
2019-04-10T21:21:57.512Z,53.44
2019-04-10T21:24:31.545Z,53.48
2019-04-10T21:27:03.720Z,53.58
2019-04-10T21:30:07.271Z,53.47
2019-04-10T21:33:12.127Z,53.57
2019-04-10T21:35:45.565Z,53.91
2019-04-10T21:38:17.660Z,53.74
2019-04-10T21:40:49.503Z,53.80
2019-04-10T21:43:22.787Z,53.52
2019-04-10T21:45:55.375Z,53.65
2019-04-10T21:48:27.562Z,53.95
2019-04-10T21:51:00.582Z,53.91
2019-04-10T21:53:34.091Z,53.90
2019-04-10T21:56:08.510Z,53.98
2019-04-10T21:58:40.853Z,54.32
2019-04-10T22:01:13.498Z,54.23
2019-04-10T22:03:45.621Z,54.14
2019-04-10T22:06:49.433Z,54.24
2019-04-10T22:09:34.897Z,54.57
2019-04-10T22:12:25.961Z,54.44
2019-04-10T22:14:54.041Z,54.48
2019-04-10T22:17:26.814Z,54.55
2019-04-10T22:19:59.443Z,54.60
2019-04-10T22:22:32.957Z,54.62
2019-04-10T22:25:05.341Z,54.64
2019-04-10T22:27:37.455Z,54.87
2019-04-10T22:30:10.452Z,54.98
2019-04-10T22:32:42.842Z,55.13
2019-04-10T22:35:15.247Z,55.16
2019-04-10T22:37:48.336Z,55.58
2019-04-10T22:40:20.160Z,55.71
2019-04-10T22:42:53.264Z,55.99
2019-04-10T22:45:29.227Z,56.06
2019-04-10T22:48:01.738Z,56.21
2019-04-10T22:50:34.511Z,56.24
2019-04-10T22:53:06.856Z,56.48
2019-04-10T22:55:42.614Z,56.83
2019-04-10T22:58:14.967Z,57.28
2019-04-10T23:00:48.450Z,57.57
2019-04-10T23:03:20.331Z,57.56
2019-04-10T23:05:53.069Z,57.96
2019-04-10T23:08:25.398Z,58.07
2019-04-10T23:10:57.454Z,57.87
2019-04-10T23:13:30.130Z,57.69
2019-04-10T23:16:02.041Z,57.85
2019-04-10T23:18:33.929Z,57.86
2019-04-10T23:21:06.101Z,57.62
2019-04-10T23:23:39.025Z,57.54
2019-04-10T23:26:11.130Z,57.25
2019-04-10T23:28:43.999Z,57.25
2019-04-10T23:31:15.632Z,57.36
2019-04-10T23:33:48.272Z,57.48
2019-04-10T23:36:20.269Z,57.07
2019-04-10T23:38:52.170Z,57.07
2019-04-10T23:41:25.479Z,56.91
2019-04-10T23:43:57.793Z,56.93
2019-04-10T23:46:30.456Z,56.99
2019-04-10T23:49:03.937Z,57.03
2019-04-10T23:51:39.098Z,56.85
2019-04-10T23:54:11.193Z,57.06
2019-04-10T23:56:44.785Z,56.94
2019-04-10T23:59:18.248Z,56.97
